aviador You're here:

LEBB Decoded Metar

BILBAO in SPAIN
Report Time2018-05-27 00:30:00
UTC Time2018-05-27 00:57:01
Flight Rules mvfr MVFR
WindCalm
Visibility9000 m
Phenomena:N/A
Clouds:Overcast 029 Hf
Expected CloudBase > 400 ft AGL from Temp-Dew spread
Ceiling2,900 ft
Temp15°C (ISA 0)
Dew Point14°C (94% RH)
QNH1015 hPa
Density Alt285 ft
Elevation112 ft
Report Wrong Elevation
Raw Report
LEBB 270030Z AUTO 00000KT 9000 OVC029/// 15/14 Q1015=

Extra information for LEBB:More info

Metar Taf Metar & Taf Last 4 Metars F.Rules Stats Wind Profile Meteogram Temp Stats Airport Information Weather charts Add Link Nearby VenuesMetar ALERT Operation Metar Decoded Social comments